sensor_id;sensor_type;location;lat;lon;timestamp;P1;durP1;ratioP1;P2;durP2;ratioP2
38457;SDS011;24239;48.058;10.486;2022-09-23T00:01:03;18.80;;;10.55;;
38457;SDS011;24239;48.058;10.486;2022-09-23T00:03:34;15.23;;;9.63;;
38457;SDS011;24239;48.058;10.486;2022-09-23T00:06:06;15.40;;;9.13;;
38457;SDS011;24239;48.058;10.486;2022-09-23T00:08:38;16.75;;;9.45;;
38457;SDS011;24239;48.058;10.486;2022-09-23T00:11:05;15.15;;;8.80;;
38457;SDS011;24239;48.058;10.486;2022-09-23T00:13:31;13.57;;;8.57;;
38457;SDS011;24239;48.058;10.486;2022-09-23T00:16:00;12.45;;;8.65;;
38457;SDS011;24239;48.058;10.486;2022-09-23T00:18:27;16.45;;;8.57;;
38457;SDS011;24239;48.058;10.486;2022-09-23T00:20:53;12.65;;;8.90;;
38457;SDS011;24239;48.058;10.486;2022-09-23T00:23:20;17.85;;;8.82;;
38457;SDS011;24239;48.058;10.486;2022-09-23T00:25:54;14.93;;;8.38;;
38457;SDS011;24239;48.058;10.486;2022-09-23T00:28:24;15.60;;;7.43;;
38457;SDS011;24239;48.058;10.486;2022-09-23T00:30:49;14.98;;;7.32;;
38457;SDS011;24239;48.058;10.486;2022-09-23T00:33:15;10.85;;;7.70;;
38457;SDS011;24239;48.058;10.486;2022-09-23T00:35:41;9.55;;;7.15;;
38457;SDS011;24239;48.058;10.486;2022-09-23T00:38:07;9.13;;;6.55;;
38457;SDS011;24239;48.058;10.486;2022-09-23T00:40:33;9.68;;;6.35;;
38457;SDS011;24239;48.058;10.486;2022-09-23T00:43:00;11.10;;;6.88;;
38457;SDS011;24239;48.058;10.486;2022-09-23T00:45:26;8.15;;;6.50;;
38457;SDS011;24239;48.058;10.486;2022-09-23T00:47:59;8.63;;;5.85;;
38457;SDS011;24239;48.058;10.486;2022-09-23T00:50:33;7.85;;;6.22;;
38457;SDS011;24239;48.058;10.486;2022-09-23T00:53:05;10.27;;;6.82;;
38457;SDS011;24239;48.058;10.486;2022-09-23T00:55:35;8.27;;;6.47;;
38457;SDS011;24239;48.058;10.486;2022-09-23T00:58:04;11.00;;;6.50;;
38457;SDS011;24239;48.058;10.486;2022-09-23T01:00:32;9.15;;;6.45;;
38457;SDS011;24239;48.058;10.486;2022-09-23T01:02:59;8.40;;;6.20;;
38457;SDS011;24239;48.058;10.486;2022-09-23T01:05:30;8.18;;;6.22;;
38457;SDS011;24239;48.058;10.486;2022-09-23T01:07:57;7.53;;;5.72;;
38457;SDS011;24239;48.058;10.486;2022-09-23T01:10:34;9.07;;;6.13;;
38457;SDS011;24239;48.058;10.486;2022-09-23T01:32:09;9.85;;;6.07;;
38457;SDS011;24239;48.058;10.486;2022-09-23T01:34:41;8.45;;;6.25;;
38457;SDS011;24239;48.058;10.486;2022-09-23T01:37:19;7.88;;;6.05;;
38457;SDS011;24239;48.058;10.486;2022-09-23T01:42:26;9.57;;;6.22;;
38457;SDS011;24239;48.058;10.486;2022-09-23T01:48:00;7.63;;;6.35;;
38457;SDS011;24239;48.058;10.486;2022-09-23T01:50:46;7.97;;;6.35;;
38457;SDS011;24239;48.058;10.486;2022-09-23T01:56:51;7.45;;;5.80;;
38457;SDS011;24239;48.058;10.486;2022-09-23T02:01:42;8.18;;;6.30;;
38457;SDS011;24239;48.058;10.486;2022-09-23T02:04:16;8.15;;;6.40;;
38457;SDS011;24239;48.058;10.486;2022-09-23T02:06:45;8.10;;;6.50;;
38457;SDS011;24239;48.058;10.486;2022-09-23T02:09:23;7.03;;;6.30;;
38457;SDS011;24239;48.058;10.486;2022-09-23T02:11:53;7.60;;;6.45;;
38457;SDS011;24239;48.058;10.486;2022-09-23T02:14:28;8.45;;;6.57;;
38457;SDS011;24239;48.058;10.486;2022-09-23T02:16:59;8.15;;;6.53;;
38457;SDS011;24239;48.058;10.486;2022-09-23T02:22:05;8.50;;;6.40;;
38457;SDS011;24239;48.058;10.486;2022-09-23T02:24:36;7.75;;;6.30;;
38457;SDS011;24239;48.058;10.486;2022-09-23T02:32:32;7.68;;;6.28;;
38457;SDS011;24239;48.058;10.486;2022-09-23T02:40:35;7.55;;;6.35;;
38457;SDS011;24239;48.058;10.486;2022-09-23T02:45:44;7.43;;;5.90;;
38457;SDS011;24239;48.058;10.486;2022-09-23T02:48:17;9.68;;;7.47;;
38457;SDS011;24239;48.058;10.486;2022-09-23T02:50:46;7.03;;;5.53;;
38457;SDS011;24239;48.058;10.486;2022-09-23T02:53:13;6.55;;;5.93;;
38457;SDS011;24239;48.058;10.486;2022-09-23T02:55:42;7.78;;;6.35;;
38457;SDS011;24239;48.058;10.486;2022-09-23T02:58:08;6.25;;;5.60;;
38457;SDS011;24239;48.058;10.486;2022-09-23T03:03:35;7.00;;;6.30;;
38457;SDS011;24239;48.058;10.486;2022-09-23T03:06:13;6.43;;;5.80;;
38457;SDS011;24239;48.058;10.486;2022-09-23T03:08:50;6.55;;;5.90;;
38457;SDS011;24239;48.058;10.486;2022-09-23T03:11:21;6.32;;;5.70;;
38457;SDS011;24239;48.058;10.486;2022-09-23T03:16:38;7.13;;;6.10;;
38457;SDS011;24239;48.058;10.486;2022-09-23T03:22:07;5.85;;;5.25;;
38457;SDS011;24239;48.058;10.486;2022-09-23T03:24:36;8.75;;;6.18;;
38457;SDS011;24239;48.058;10.486;2022-09-23T03:27:08;6.95;;;5.93;;
38457;SDS011;24239;48.058;10.486;2022-09-23T03:29:40;7.93;;;6.10;;
38457;SDS011;24239;48.058;10.486;2022-09-23T03:32:10;7.13;;;6.43;;
38457;SDS011;24239;48.058;10.486;2022-09-23T03:34:37;8.65;;;6.75;;
38457;SDS011;24239;48.058;10.486;2022-09-23T03:37:09;6.95;;;6.25;;
38457;SDS011;24239;48.058;10.486;2022-09-23T03:39:43;9.00;;;6.65;;
38457;SDS011;24239;48.058;10.486;2022-09-23T03:42:27;7.78;;;6.32;;
38457;SDS011;24239;48.058;10.486;2022-09-23T03:44:55;6.88;;;6.00;;
38457;SDS011;24239;48.058;10.486;2022-09-23T03:47:22;7.53;;;6.50;;
38457;SDS011;24239;48.058;10.486;2022-09-23T03:49:53;8.20;;;5.97;;
38457;SDS011;24239;48.058;10.486;2022-09-23T03:52:23;8.40;;;6.22;;
38457;SDS011;24239;48.058;10.486;2022-09-23T03:54:50;6.18;;;5.57;;
38457;SDS011;24239;48.058;10.486;2022-09-23T03:57:16;9.50;;;6.53;;
38457;SDS011;24239;48.058;10.486;2022-09-23T03:59:43;6.85;;;6.15;;
38457;SDS011;24239;48.058;10.486;2022-09-23T04:02:08;6.88;;;5.88;;
38457;SDS011;24239;48.058;10.486;2022-09-23T04:04:37;6.63;;;5.90;;
38457;SDS011;24239;48.058;10.486;2022-09-23T04:07:05;7.72;;;6.40;;
38457;SDS011;24239;48.058;10.486;2022-09-23T04:09:31;6.63;;;5.82;;
38457;SDS011;24239;48.058;10.486;2022-09-23T04:11:57;6.63;;;5.88;;
38457;SDS011;24239;48.058;10.486;2022-09-23T04:14:23;6.28;;;5.68;;
38457;SDS011;24239;48.058;10.486;2022-09-23T04:16:49;6.93;;;6.22;;
38457;SDS011;24239;48.058;10.486;2022-09-23T04:19:15;8.73;;;6.13;;
38457;SDS011;24239;48.058;10.486;2022-09-23T04:21:42;7.35;;;6.13;;
38457;SDS011;24239;48.058;10.486;2022-09-23T04:24:09;9.88;;;6.80;;
38457;SDS011;24239;48.058;10.486;2022-09-23T04:26:36;9.02;;;6.53;;
38457;SDS011;24239;48.058;10.486;2022-09-23T04:29:03;9.65;;;7.43;;
38457;SDS011;24239;48.058;10.486;2022-09-23T04:31:30;10.45;;;7.78;;
38457;SDS011;24239;48.058;10.486;2022-09-23T04:33:57;28.88;;;16.42;;
38457;SDS011;24239;48.058;10.486;2022-09-23T04:36:25;25.02;;;15.57;;
38457;SDS011;24239;48.058;10.486;2022-09-23T04:38:51;14.50;;;9.65;;
38457;SDS011;24239;48.058;10.486;2022-09-23T04:41:17;10.23;;;8.55;;
38457;SDS011;24239;48.058;10.486;2022-09-23T04:43:43;11.85;;;7.65;;
38457;SDS011;24239;48.058;10.486;2022-09-23T04:46:10;10.68;;;7.10;;
38457;SDS011;24239;48.058;10.486;2022-09-23T04:48:37;8.68;;;6.85;;
38457;SDS011;24239;48.058;10.486;2022-09-23T04:51:05;12.30;;;7.78;;
38457;SDS011;24239;48.058;10.486;2022-09-23T04:53:33;13.73;;;8.85;;
38457;SDS011;24239;48.058;10.486;2022-09-23T04:56:03;11.25;;;8.00;;
38457;SDS011;24239;48.058;10.486;2022-09-23T04:58:31;14.27;;;8.38;;
38457;SDS011;24239;48.058;10.486;2022-09-23T05:01:06;12.38;;;8.60;;
38457;SDS011;24239;48.058;10.486;2022-09-23T05:03:42;16.88;;;10.90;;
38457;SDS011;24239;48.058;10.486;2022-09-23T05:06:10;21.52;;;13.05;;
38457;SDS011;24239;48.058;10.486;2022-09-23T05:08:38;15.20;;;10.48;;
38457;SDS011;24239;48.058;10.486;2022-09-23T05:11:05;10.85;;;8.52;;
38457;SDS011;24239;48.058;10.486;2022-09-23T05:13:31;12.85;;;7.65;;
38457;SDS011;24239;48.058;10.486;2022-09-23T05:16:05;12.38;;;8.75;;
38457;SDS011;24239;48.058;10.486;2022-09-23T05:18:34;13.43;;;9.65;;
38457;SDS011;24239;48.058;10.486;2022-09-23T05:21:00;19.52;;;13.40;;
38457;SDS011;24239;48.058;10.486;2022-09-23T05:23:27;16.55;;;10.13;;
38457;SDS011;24239;48.058;10.486;2022-09-23T05:25:57;10.48;;;7.80;;
38457;SDS011;24239;48.058;10.486;2022-09-23T05:28:25;13.27;;;9.50;;
38457;SDS011;24239;48.058;10.486;2022-09-23T05:31:04;19.83;;;12.55;;
38457;SDS011;24239;48.058;10.486;2022-09-23T05:33:32;17.65;;;12.88;;
38457;SDS011;24239;48.058;10.486;2022-09-23T05:35:58;14.77;;;10.38;;
38457;SDS011;24239;48.058;10.486;2022-09-23T05:38:25;12.35;;;8.80;;
38457;SDS011;24239;48.058;10.486;2022-09-23T05:40:58;11.75;;;8.10;;
38457;SDS011;24239;48.058;10.486;2022-09-23T05:43:26;10.70;;;7.53;;
38457;SDS011;24239;48.058;10.486;2022-09-23T05:46:05;11.07;;;8.02;;
38457;SDS011;24239;48.058;10.486;2022-09-23T05:48:39;13.48;;;7.65;;
38457;SDS011;24239;48.058;10.486;2022-09-23T05:51:06;11.68;;;7.90;;
38457;SDS011;24239;48.058;10.486;2022-09-23T05:53:37;12.30;;;7.33;;
38457;SDS011;24239;48.058;10.486;2022-09-23T05:56:09;9.02;;;7.45;;
38457;SDS011;24239;48.058;10.486;2022-09-23T05:58:36;9.20;;;7.80;;
38457;SDS011;24239;48.058;10.486;2022-09-23T06:01:07;10.60;;;7.32;;
38457;SDS011;24239;48.058;10.486;2022-09-23T06:03:37;8.57;;;7.45;;
38457;SDS011;24239;48.058;10.486;2022-09-23T06:06:03;10.45;;;8.02;;
38457;SDS011;24239;48.058;10.486;2022-09-23T06:08:30;10.60;;;7.95;;
38457;SDS011;24239;48.058;10.486;2022-09-23T06:11:01;11.57;;;7.75;;
38457;SDS011;24239;48.058;10.486;2022-09-23T06:13:31;10.00;;;7.35;;
38457;SDS011;24239;48.058;10.486;2022-09-23T06:16:05;10.20;;;8.00;;
38457;SDS011;24239;48.058;10.486;2022-09-23T06:18:42;15.00;;;8.77;;
38457;SDS011;24239;48.058;10.486;2022-09-23T06:21:13;16.23;;;8.90;;
38457;SDS011;24239;48.058;10.486;2022-09-23T06:23:40;13.95;;;8.65;;
38457;SDS011;24239;48.058;10.486;2022-09-23T06:26:07;12.10;;;8.43;;
38457;SDS011;24239;48.058;10.486;2022-09-23T06:28:35;17.40;;;9.35;;
38457;SDS011;24239;48.058;10.486;2022-09-23T06:31:20;14.98;;;9.55;;
38457;SDS011;24239;48.058;10.486;2022-09-23T06:33:48;16.15;;;9.30;;
38457;SDS011;24239;48.058;10.486;2022-09-23T06:36:14;13.02;;;9.25;;
38457;SDS011;24239;48.058;10.486;2022-09-23T06:38:42;15.07;;;8.70;;
38457;SDS011;24239;48.058;10.486;2022-09-23T06:41:09;14.05;;;8.98;;
38457;SDS011;24239;48.058;10.486;2022-09-23T06:43:35;12.80;;;8.32;;
38457;SDS011;24239;48.058;10.486;2022-09-23T06:46:02;12.07;;;8.23;;
38457;SDS011;24239;48.058;10.486;2022-09-23T06:48:29;12.55;;;8.15;;
38457;SDS011;24239;48.058;10.486;2022-09-23T06:50:59;11.65;;;8.38;;
38457;SDS011;24239;48.058;10.486;2022-09-23T06:53:27;12.90;;;8.45;;
38457;SDS011;24239;48.058;10.486;2022-09-23T06:58:30;10.85;;;8.02;;
38457;SDS011;24239;48.058;10.486;2022-09-23T07:01:03;9.80;;;7.88;;
38457;SDS011;24239;48.058;10.486;2022-09-23T07:03:31;13.55;;;7.75;;
38457;SDS011;24239;48.058;10.486;2022-09-23T07:05:57;8.77;;;7.13;;
38457;SDS011;24239;48.058;10.486;2022-09-23T07:08:24;8.77;;;7.25;;
38457;SDS011;24239;48.058;10.486;2022-09-23T07:10:54;11.40;;;7.55;;
38457;SDS011;24239;48.058;10.486;2022-09-23T07:13:21;11.65;;;7.05;;
38457;SDS011;24239;48.058;10.486;2022-09-23T07:15:51;10.63;;;6.97;;
38457;SDS011;24239;48.058;10.486;2022-09-23T07:18:20;10.60;;;7.15;;
38457;SDS011;24239;48.058;10.486;2022-09-23T07:20:52;17.73;;;8.45;;
38457;SDS011;24239;48.058;10.486;2022-09-23T07:23:22;11.50;;;8.27;;
38457;SDS011;24239;48.058;10.486;2022-09-23T07:25:48;13.98;;;8.68;;
38457;SDS011;24239;48.058;10.486;2022-09-23T07:28:18;15.80;;;9.27;;
38457;SDS011;24239;48.058;10.486;2022-09-23T07:30:44;16.23;;;8.93;;
38457;SDS011;24239;48.058;10.486;2022-09-23T07:33:11;15.40;;;9.25;;
38457;SDS011;24239;48.058;10.486;2022-09-23T07:35:40;12.15;;;7.25;;
38457;SDS011;24239;48.058;10.486;2022-09-23T07:38:09;8.43;;;6.82;;
38457;SDS011;24239;48.058;10.486;2022-09-23T07:40:37;13.13;;;7.47;;
38457;SDS011;24239;48.058;10.486;2022-09-23T07:43:06;8.00;;;6.30;;
38457;SDS011;24239;48.058;10.486;2022-09-23T07:45:33;8.05;;;6.55;;
38457;SDS011;24239;48.058;10.486;2022-09-23T07:47:59;8.32;;;6.65;;
38457;SDS011;24239;48.058;10.486;2022-09-23T07:50:26;8.15;;;6.05;;
38457;SDS011;24239;48.058;10.486;2022-09-23T07:52:52;6.95;;;6.25;;
38457;SDS011;24239;48.058;10.486;2022-09-23T07:55:20;6.88;;;5.60;;
38457;SDS011;24239;48.058;10.486;2022-09-23T07:57:46;8.40;;;5.72;;
38457;SDS011;24239;48.058;10.486;2022-09-23T08:00:11;6.93;;;5.63;;
38457;SDS011;24239;48.058;10.486;2022-09-23T08:02:41;8.63;;;5.35;;
38457;SDS011;24239;48.058;10.486;2022-09-23T08:05:07;6.13;;;5.03;;
38457;SDS011;24239;48.058;10.486;2022-09-23T08:07:33;7.60;;;5.28;;
38457;SDS011;24239;48.058;10.486;2022-09-23T08:10:01;6.40;;;4.72;;
38457;SDS011;24239;48.058;10.486;2022-09-23T08:12:28;6.30;;;5.35;;
38457;SDS011;24239;48.058;10.486;2022-09-23T08:14:54;5.63;;;5.10;;
38457;SDS011;24239;48.058;10.486;2022-09-23T08:17:20;7.68;;;4.97;;
38457;SDS011;24239;48.058;10.486;2022-09-23T08:19:46;7.68;;;5.18;;
38457;SDS011;24239;48.058;10.486;2022-09-23T08:22:12;7.55;;;5.13;;
38457;SDS011;24239;48.058;10.486;2022-09-23T08:24:40;8.77;;;5.28;;
38457;SDS011;24239;48.058;10.486;2022-09-23T08:27:08;9.23;;;5.35;;
38457;SDS011;24239;48.058;10.486;2022-09-23T08:29:35;7.10;;;4.80;;
38457;SDS011;24239;48.058;10.486;2022-09-23T08:32:01;6.20;;;5.05;;
38457;SDS011;24239;48.058;10.486;2022-09-23T08:34:27;5.03;;;4.50;;
38457;SDS011;24239;48.058;10.486;2022-09-23T08:36:53;7.43;;;4.68;;
38457;SDS011;24239;48.058;10.486;2022-09-23T08:39:18;7.18;;;5.15;;
38457;SDS011;24239;48.058;10.486;2022-09-23T08:44:49;7.32;;;4.43;;
38457;SDS011;24239;48.058;10.486;2022-09-23T08:47:25;10.15;;;4.60;;
38457;SDS011;24239;48.058;10.486;2022-09-23T08:52:47;8.50;;;5.10;;
38457;SDS011;24239;48.058;10.486;2022-09-23T08:55:26;6.13;;;4.75;;
38457;SDS011;24239;48.058;10.486;2022-09-23T09:01:12;9.40;;;4.40;;
38457;SDS011;24239;48.058;10.486;2022-09-23T09:03:48;8.80;;;4.68;;
38457;SDS011;24239;48.058;10.486;2022-09-23T09:06:40;6.95;;;4.35;;
38457;SDS011;24239;48.058;10.486;2022-09-23T09:09:26;7.50;;;3.83;;
38457;SDS011;24239;48.058;10.486;2022-09-23T09:12:21;5.75;;;4.15;;
38457;SDS011;24239;48.058;10.486;2022-09-23T09:22:49;6.50;;;3.80;;
38457;SDS011;24239;48.058;10.486;2022-09-23T09:30:39;7.57;;;4.75;;
38457;SDS011;24239;48.058;10.486;2022-09-23T09:33:10;5.85;;;4.40;;
38457;SDS011;24239;48.058;10.486;2022-09-23T09:38:28;7.90;;;4.75;;
38457;SDS011;24239;48.058;10.486;2022-09-23T09:40:58;9.68;;;5.07;;
38457;SDS011;24239;48.058;10.486;2022-09-23T09:43:32;10.57;;;4.95;;
38457;SDS011;24239;48.058;10.486;2022-09-23T09:51:41;9.52;;;5.65;;
38457;SDS011;24239;48.058;10.486;2022-09-23T09:54:17;7.25;;;6.25;;
38457;SDS011;24239;48.058;10.486;2022-09-23T09:56:47;7.70;;;5.85;;
38457;SDS011;24239;48.058;10.486;2022-09-23T09:59:16;10.05;;;6.00;;
38457;SDS011;24239;48.058;10.486;2022-09-23T10:01:48;8.20;;;6.05;;
38457;SDS011;24239;48.058;10.486;2022-09-23T10:04:34;11.98;;;5.80;;
38457;SDS011;24239;48.058;10.486;2022-09-23T10:07:06;7.78;;;5.88;;
38457;SDS011;24239;48.058;10.486;2022-09-23T10:09:37;10.20;;;7.55;;
38457;SDS011;24239;48.058;10.486;2022-09-23T10:12:11;9.48;;;6.13;;
38457;SDS011;24239;48.058;10.486;2022-09-23T10:14:40;9.98;;;6.95;;
38457;SDS011;24239;48.058;10.486;2022-09-23T10:17:07;10.75;;;6.57;;
38457;SDS011;24239;48.058;10.486;2022-09-23T10:19:46;8.70;;;6.05;;
38457;SDS011;24239;48.058;10.486;2022-09-23T10:24:48;9.55;;;6.70;;
38457;SDS011;24239;48.058;10.486;2022-09-23T10:27:24;10.85;;;6.90;;
38457;SDS011;24239;48.058;10.486;2022-09-23T10:29:56;11.38;;;6.18;;
38457;SDS011;24239;48.058;10.486;2022-09-23T10:35:00;9.10;;;6.88;;
38457;SDS011;24239;48.058;10.486;2022-09-23T10:58:19;9.20;;;5.78;;
38457;SDS011;24239;48.058;10.486;2022-09-23T11:12:54;9.43;;;5.53;;
38457;SDS011;24239;48.058;10.486;2022-09-23T11:20:34;12.05;;;5.65;;
38457;SDS011;24239;48.058;10.486;2022-09-23T11:26:53;4.80;;;4.15;;
38457;SDS011;24239;48.058;10.486;2022-09-23T11:35:01;8.38;;;3.75;;
38457;SDS011;24239;48.058;10.486;2022-09-23T11:37:39;8.05;;;4.15;;
38457;SDS011;24239;48.058;10.486;2022-09-23T11:40:14;5.13;;;4.22;;
38457;SDS011;24239;48.058;10.486;2022-09-23T11:45:19;7.03;;;3.60;;
38457;SDS011;24239;48.058;10.486;2022-09-23T11:47:59;6.78;;;3.90;;
38457;SDS011;24239;48.058;10.486;2022-09-23T11:53:06;5.15;;;4.20;;
38457;SDS011;24239;48.058;10.486;2022-09-23T11:56:15;9.40;;;3.65;;
38457;SDS011;24239;48.058;10.486;2022-09-23T11:58:56;6.88;;;3.92;;
38457;SDS011;24239;48.058;10.486;2022-09-23T12:01:31;8.02;;;4.07;;
38457;SDS011;24239;48.058;10.486;2022-09-23T12:04:05;4.45;;;3.75;;
38457;SDS011;24239;48.058;10.486;2022-09-23T12:06:42;15.57;;;3.67;;
38457;SDS011;24239;48.058;10.486;2022-09-23T12:09:18;6.45;;;4.00;;
38457;SDS011;24239;48.058;10.486;2022-09-23T12:11:52;6.05;;;3.63;;
38457;SDS011;24239;48.058;10.486;2022-09-23T12:17:18;5.57;;;3.50;;
38457;SDS011;24239;48.058;10.486;2022-09-23T12:28:19;7.63;;;4.20;;
38457;SDS011;24239;48.058;10.486;2022-09-23T12:31:07;10.13;;;4.57;;
38457;SDS011;24239;48.058;10.486;2022-09-23T12:33:38;9.00;;;4.38;;
38457;SDS011;24239;48.058;10.486;2022-09-23T12:36:12;6.10;;;4.00;;
38457;SDS011;24239;48.058;10.486;2022-09-23T12:49:38;6.60;;;3.50;;
38457;SDS011;24239;48.058;10.486;2022-09-23T12:54:42;7.03;;;3.75;;
38457;SDS011;24239;48.058;10.486;2022-09-23T13:02:37;10.10;;;3.88;;
38457;SDS011;24239;48.058;10.486;2022-09-23T13:05:31;5.95;;;4.50;;
38457;SDS011;24239;48.058;10.486;2022-09-23T13:08:24;7.88;;;4.63;;
38457;SDS011;24239;48.058;10.486;2022-09-23T13:10:54;6.57;;;3.95;;
38457;SDS011;24239;48.058;10.486;2022-09-23T13:32:12;7.40;;;3.78;;
38457;SDS011;24239;48.058;10.486;2022-09-23T13:34:42;11.65;;;4.00;;
38457;SDS011;24239;48.058;10.486;2022-09-23T13:37:21;5.82;;;3.58;;
38457;SDS011;24239;48.058;10.486;2022-09-23T13:39:49;8.32;;;3.58;;
38457;SDS011;24239;48.058;10.486;2022-09-23T13:42:19;4.90;;;3.17;;
38457;SDS011;24239;48.058;10.486;2022-09-23T13:44:56;7.78;;;2.90;;
38457;SDS011;24239;48.058;10.486;2022-09-23T13:47:26;7.25;;;3.20;;
38457;SDS011;24239;48.058;10.486;2022-09-23T13:49:54;6.32;;;3.28;;
38457;SDS011;24239;48.058;10.486;2022-09-23T13:52:22;5.13;;;2.97;;
38457;SDS011;24239;48.058;10.486;2022-09-23T13:54:54;7.53;;;3.50;;
38457;SDS011;24239;48.058;10.486;2022-09-23T13:59:50;8.02;;;2.90;;
38457;SDS011;24239;48.058;10.486;2022-09-23T14:02:16;9.40;;;3.30;;
38457;SDS011;24239;48.058;10.486;2022-09-23T14:04:42;6.57;;;2.70;;
38457;SDS011;24239;48.058;10.486;2022-09-23T14:07:09;5.53;;;3.03;;
38457;SDS011;24239;48.058;10.486;2022-09-23T14:09:42;4.25;;;2.63;;
38457;SDS011;24239;48.058;10.486;2022-09-23T14:12:10;7.57;;;3.45;;
38457;SDS011;24239;48.058;10.486;2022-09-23T14:14:37;5.78;;;3.38;;
38457;SDS011;24239;48.058;10.486;2022-09-23T14:17:05;7.05;;;3.95;;
38457;SDS011;24239;48.058;10.486;2022-09-23T14:19:33;5.93;;;3.55;;
38457;SDS011;24239;48.058;10.486;2022-09-23T14:22:01;4.43;;;3.50;;
38457;SDS011;24239;48.058;10.486;2022-09-23T14:24:34;5.45;;;3.55;;
38457;SDS011;24239;48.058;10.486;2022-09-23T14:27:14;6.50;;;3.83;;
38457;SDS011;24239;48.058;10.486;2022-09-23T14:29:43;4.53;;;3.47;;
38457;SDS011;24239;48.058;10.486;2022-09-23T14:32:12;7.45;;;4.25;;
38457;SDS011;24239;48.058;10.486;2022-09-23T14:34:52;11.20;;;3.80;;
38457;SDS011;24239;48.058;10.486;2022-09-23T14:42:49;9.98;;;4.20;;
38457;SDS011;24239;48.058;10.486;2022-09-23T14:45:23;7.45;;;3.80;;
38457;SDS011;24239;48.058;10.486;2022-09-23T14:47:52;8.10;;;3.78;;
38457;SDS011;24239;48.058;10.486;2022-09-23T14:50:24;4.45;;;3.35;;
38457;SDS011;24239;48.058;10.486;2022-09-23T14:53:02;4.50;;;3.65;;
38457;SDS011;24239;48.058;10.486;2022-09-23T14:55:28;6.00;;;3.20;;
38457;SDS011;24239;48.058;10.486;2022-09-23T14:58:02;8.00;;;4.13;;
38457;SDS011;24239;48.058;10.486;2022-09-23T15:00:30;6.60;;;3.80;;
38457;SDS011;24239;48.058;10.486;2022-09-23T15:02:59;4.72;;;3.58;;
38457;SDS011;24239;48.058;10.486;2022-09-23T15:08:07;8.20;;;3.95;;
38457;SDS011;24239;48.058;10.486;2022-09-23T15:10:37;3.63;;;3.28;;
38457;SDS011;24239;48.058;10.486;2022-09-23T15:13:08;7.10;;;3.90;;
38457;SDS011;24239;48.058;10.486;2022-09-23T15:15:41;7.85;;;3.67;;
38457;SDS011;24239;48.058;10.486;2022-09-23T15:18:26;6.53;;;4.32;;
38457;SDS011;24239;48.058;10.486;2022-09-23T15:21:16;5.30;;;3.95;;
38457;SDS011;24239;48.058;10.486;2022-09-23T15:28:40;7.45;;;3.40;;
38457;SDS011;24239;48.058;10.486;2022-09-23T15:31:13;6.78;;;3.90;;
38457;SDS011;24239;48.058;10.486;2022-09-23T15:33:49;9.18;;;3.45;;
38457;SDS011;24239;48.058;10.486;2022-09-23T15:36:19;7.90;;;3.72;;
38457;SDS011;24239;48.058;10.486;2022-09-23T15:38:47;6.00;;;3.97;;
38457;SDS011;24239;48.058;10.486;2022-09-23T15:41:13;4.72;;;3.80;;
38457;SDS011;24239;48.058;10.486;2022-09-23T15:43:41;8.15;;;4.18;;
38457;SDS011;24239;48.058;10.486;2022-09-23T15:46:12;8.05;;;3.60;;
38457;SDS011;24239;48.058;10.486;2022-09-23T15:51:29;9.13;;;3.67;;
38457;SDS011;24239;48.058;10.486;2022-09-23T15:53:55;4.05;;;3.17;;
38457;SDS011;24239;48.058;10.486;2022-09-23T15:56:22;5.45;;;3.60;;
38457;SDS011;24239;48.058;10.486;2022-09-23T15:58:48;5.60;;;3.50;;
38457;SDS011;24239;48.058;10.486;2022-09-23T16:01:30;8.52;;;3.97;;
38457;SDS011;24239;48.058;10.486;2022-09-23T16:04:00;4.63;;;3.45;;
38457;SDS011;24239;48.058;10.486;2022-09-23T16:06:26;10.23;;;4.00;;
38457;SDS011;24239;48.058;10.486;2022-09-23T16:08:52;5.70;;;3.63;;
38457;SDS011;24239;48.058;10.486;2022-09-23T16:11:28;6.10;;;3.83;;
38457;SDS011;24239;48.058;10.486;2022-09-23T16:13:56;8.10;;;3.67;;
38457;SDS011;24239;48.058;10.486;2022-09-23T16:16:23;6.70;;;4.32;;
38457;SDS011;24239;48.058;10.486;2022-09-23T16:18:51;9.25;;;5.25;;
38457;SDS011;24239;48.058;10.486;2022-09-23T16:21:19;12.18;;;8.02;;
38457;SDS011;24239;48.058;10.486;2022-09-23T16:23:47;14.00;;;8.00;;
38457;SDS011;24239;48.058;10.486;2022-09-23T16:26:18;8.07;;;4.18;;
38457;SDS011;24239;48.058;10.486;2022-09-23T16:28:50;7.03;;;3.53;;
38457;SDS011;24239;48.058;10.486;2022-09-23T16:31:17;6.38;;;3.97;;
38457;SDS011;24239;48.058;10.486;2022-09-23T16:33:44;7.45;;;4.22;;
38457;SDS011;24239;48.058;10.486;2022-09-23T16:36:31;8.15;;;4.80;;
38457;SDS011;24239;48.058;10.486;2022-09-23T16:38:59;8.10;;;4.30;;
38457;SDS011;24239;48.058;10.486;2022-09-23T16:41:28;8.18;;;5.22;;
38457;SDS011;24239;48.058;10.486;2022-09-23T16:43:58;11.70;;;4.95;;
38457;SDS011;24239;48.058;10.486;2022-09-23T16:46:26;9.80;;;5.57;;
38457;SDS011;24239;48.058;10.486;2022-09-23T16:48:53;14.77;;;5.05;;
38457;SDS011;24239;48.058;10.486;2022-09-23T16:51:24;13.85;;;5.03;;
38457;SDS011;24239;48.058;10.486;2022-09-23T16:53:53;7.87;;;4.67;;
38457;SDS011;24239;48.058;10.486;2022-09-23T16:56:21;7.72;;;4.22;;
38457;SDS011;24239;48.058;10.486;2022-09-23T16:58:48;7.25;;;4.35;;
38457;SDS011;24239;48.058;10.486;2022-09-23T17:01:19;8.73;;;4.68;;
38457;SDS011;24239;48.058;10.486;2022-09-23T17:04:05;6.80;;;4.50;;
38457;SDS011;24239;48.058;10.486;2022-09-23T17:06:34;8.20;;;5.10;;
38457;SDS011;24239;48.058;10.486;2022-09-23T17:09:13;9.95;;;5.07;;
38457;SDS011;24239;48.058;10.486;2022-09-23T17:11:38;8.82;;;5.35;;
38457;SDS011;24239;48.058;10.486;2022-09-23T17:14:06;10.88;;;5.70;;
38457;SDS011;24239;48.058;10.486;2022-09-23T17:16:32;10.55;;;6.32;;
38457;SDS011;24239;48.058;10.486;2022-09-23T17:18:58;14.50;;;7.35;;
38457;SDS011;24239;48.058;10.486;2022-09-23T17:21:33;49.33;;;26.67;;
38457;SDS011;24239;48.058;10.486;2022-09-23T17:23:59;39.90;;;22.60;;
38457;SDS011;24239;48.058;10.486;2022-09-23T17:26:26;44.55;;;25.38;;
38457;SDS011;24239;48.058;10.486;2022-09-23T17:28:52;32.17;;;19.88;;
38457;SDS011;24239;48.058;10.486;2022-09-23T17:31:20;36.03;;;22.02;;
38457;SDS011;24239;48.058;10.486;2022-09-23T17:33:46;24.73;;;15.85;;
38457;SDS011;24239;48.058;10.486;2022-09-23T17:36:13;54.13;;;30.73;;
38457;SDS011;24239;48.058;10.486;2022-09-23T17:38:43;36.50;;;23.23;;
38457;SDS011;24239;48.058;10.486;2022-09-23T17:41:10;22.58;;;12.38;;
38457;SDS011;24239;48.058;10.486;2022-09-23T17:43:37;17.40;;;9.60;;
38457;SDS011;24239;48.058;10.486;2022-09-23T17:46:04;15.73;;;10.13;;
38457;SDS011;24239;48.058;10.486;2022-09-23T17:48:38;23.70;;;16.02;;
38457;SDS011;24239;48.058;10.486;2022-09-23T17:53:32;30.73;;;22.85;;
38457;SDS011;24239;48.058;10.486;2022-09-23T17:56:02;43.22;;;26.40;;
38457;SDS011;24239;48.058;10.486;2022-09-23T17:58:31;42.20;;;25.95;;
38457;SDS011;24239;48.058;10.486;2022-09-23T18:01:04;42.67;;;27.27;;
38457;SDS011;24239;48.058;10.486;2022-09-23T18:03:36;23.27;;;13.25;;
38457;SDS011;24239;48.058;10.486;2022-09-23T18:08:39;17.02;;;10.63;;
38457;SDS011;24239;48.058;10.486;2022-09-23T18:11:12;11.35;;;8.10;;
38457;SDS011;24239;48.058;10.486;2022-09-23T18:13:53;14.63;;;9.43;;
38457;SDS011;24239;48.058;10.486;2022-09-23T18:16:24;11.77;;;9.27;;
38457;SDS011;24239;48.058;10.486;2022-09-23T18:18:59;14.82;;;9.55;;
38457;SDS011;24239;48.058;10.486;2022-09-23T18:21:30;50.25;;;20.55;;
38457;SDS011;24239;48.058;10.486;2022-09-23T18:24:34;53.47;;;23.20;;
38457;SDS011;24239;48.058;10.486;2022-09-23T18:27:04;39.67;;;19.77;;